Time;durP1;ratioP1;P1;durP2;ratioP2;P2;SDS_P1;SDS_P2;PMS_P1;PMS_P2;Temp;Humidity;BMP_temperature;BMP_pressure;BME280_temperature;BME280_humidity;BME280_pressure;Samples;Min_cycle;Max_cycle;Signal;HPM_P1;HPM_P2
2023/08/12 00:02:19;;;;;;;4.90;3.95;;;;;;;;;;5027460;28;20210;-76
2023/08/12 00:04:47;;;;;;;4.93;3.88;;;;;;;;;;5032451;28;20221;-76
2023/08/12 00:07:17;;;;;;;5.60;4.25;;;;;;;;;;5032117;28;20343;-76
2023/08/12 00:09:45;;;;;;;3.85;3.55;;;;;;;;;;5010972;28;20322;-76
2023/08/12 00:12:12;;;;;;;5.38;3.85;;;;;;;;;;5011280;28;20198;-76
2023/08/12 00:14:40;;;;;;;4.60;3.92;;;;;;;;;;5033951;28;20199;-76
2023/08/12 00:17:07;;;;;;;6.85;3.92;;;;;;;;;;5031289;28;20226;-75
2023/08/12 00:19:35;;;;;;;7.53;4.53;;;;;;;;;;5030081;28;20212;-76
2023/08/12 00:22:04;;;;;;;6.80;4.40;;;;;;;;;;5032730;28;20221;-77
2023/08/12 00:24:32;;;;;;;5.03;4.43;;;;;;;;;;5027100;28;20585;-77
2023/08/12 00:26:59;;;;;;;5.53;4.53;;;;;;;;;;5013650;28;20228;-78
2023/08/12 00:29:29;;;;;;;5.22;4.40;;;;;;;;;;5026112;28;20201;-78
2023/08/12 00:31:57;;;;;;;5.30;4.22;;;;;;;;;;5032456;28;20217;-78
2023/08/12 00:34:24;;;;;;;8.60;4.95;;;;;;;;;;5037483;28;20207;-76
2023/08/12 00:36:52;;;;;;;6.88;4.85;;;;;;;;;;5041456;28;20225;-77
2023/08/12 00:39:19;;;;;;;7.82;5.10;;;;;;;;;;5042769;28;20672;-77
2023/08/12 00:41:46;;;;;;;6.00;4.80;;;;;;;;;;5037139;28;20198;-76
2023/08/12 00:44:13;;;;;;;6.07;4.88;;;;;;;;;;5025280;28;20207;-76
2023/08/12 00:46:42;;;;;;;5.38;4.45;;;;;;;;;;5019813;28;20199;-76
2023/08/12 00:49:09;;;;;;;6.63;4.38;;;;;;;;;;5024513;28;20198;-77
2023/08/12 00:51:37;;;;;;;7.00;4.53;;;;;;;;;;5027809;28;20213;-78
2023/08/12 00:54:06;;;;;;;5.20;4.43;;;;;;;;;;5016857;28;20210;-78
2023/08/12 00:56:34;;;;;;;6.90;4.60;;;;;;;;;;5028495;28;20276;-77
2023/08/12 00:59:04;;;;;;;5.32;4.82;;;;;;;;;;5021304;28;20271;-79
2023/08/12 01:01:31;;;;;;;6.38;4.65;;;;;;;;;;5018140;28;22860;-78
2023/08/12 01:04:01;;;;;;;5.53;4.50;;;;;;;;;;5029745;28;20280;-78
2023/08/12 01:06:28;;;;;;;5.25;4.20;;;;;;;;;;5001889;28;20226;-77
2023/08/12 01:08:56;;;;;;;6.45;4.13;;;;;;;;;;5033067;28;20569;-77
2023/08/12 01:11:33;;;;;;;8.93;4.30;;;;;;;;;;5034906;28;20702;-77
2023/08/12 01:14:03;;;;;;;4.93;4.30;;;;;;;;;;5028759;28;20209;-77
2023/08/12 01:16:35;;;;;;;5.00;4.35;;;;;;;;;;5031175;28;20210;-77
2023/08/12 01:19:04;;;;;;;5.80;4.53;;;;;;;;;;5031591;28;20224;-76
2023/08/12 01:21:39;;;;;;;6.80;4.40;;;;;;;;;;5030451;28;20214;-77
2023/08/12 01:24:07;;;;;;;5.10;4.25;;;;;;;;;;5029112;28;20205;-78
2023/08/12 01:26:34;;;;;;;5.32;4.30;;;;;;;;;;5029821;28;20318;-76
2023/08/12 01:29:03;;;;;;;5.82;4.20;;;;;;;;;;5016099;28;20210;-76
2023/08/12 01:31:34;;;;;;;5.15;4.45;;;;;;;;;;5030612;28;20221;-76
2023/08/12 01:34:11;;;;;;;5.45;3.97;;;;;;;;;;5005180;28;20222;-76
2023/08/12 01:36:40;;;;;;;5.10;4.00;;;;;;;;;;5026016;28;20671;-76
2023/08/12 01:39:10;;;;;;;6.13;4.00;;;;;;;;;;5036070;28;20206;-76
2023/08/12 01:41:38;;;;;;;7.22;4.05;;;;;;;;;;5038453;28;20289;-77
2023/08/12 01:44:05;;;;;;;4.47;3.75;;;;;;;;;;5036789;28;20214;-75
2023/08/12 01:46:33;;;;;;;5.40;4.30;;;;;;;;;;5036161;28;20226;-77
2023/08/12 01:49:00;;;;;;;5.00;4.53;;;;;;;;;;5005915;28;20233;-77
2023/08/12 01:51:30;;;;;;;5.53;4.25;;;;;;;;;;5020632;28;20217;-77
2023/08/12 01:53:57;;;;;;;4.30;3.90;;;;;;;;;;5020341;28;20204;-76
2023/08/12 01:56:26;;;;;;;4.55;4.10;;;;;;;;;;5018880;28;20815;-75
2023/08/12 01:58:53;;;;;;;5.18;4.53;;;;;;;;;;5024029;28;20700;-76
2023/08/12 02:01:22;;;;;;;4.82;4.43;;;;;;;;;;5031791;28;20206;-77
2023/08/12 02:03:49;;;;;;;5.75;4.38;;;;;;;;;;5030182;28;20206;-75
2023/08/12 02:06:16;;;;;;;6.90;4.45;;;;;;;;;;5028211;28;20222;-76
2023/08/12 02:08:44;;;;;;;5.65;4.50;;;;;;;;;;5024070;28;20623;-77
2023/08/12 02:11:11;;;;;;;6.05;4.35;;;;;;;;;;5006928;28;21229;-77
2023/08/12 02:13:41;;;;;;;5.57;4.35;;;;;;;;;;5028776;28;20206;-76
2023/08/12 02:16:08;;;;;;;5.80;4.35;;;;;;;;;;5006198;28;20364;-77
2023/08/12 02:18:36;;;;;;;6.28;4.65;;;;;;;;;;5026294;28;20226;-77
2023/08/12 02:21:03;;;;;;;5.32;4.82;;;;;;;;;;5021308;28;20940;-78
2023/08/12 02:23:30;;;;;;;4.78;4.35;;;;;;;;;;5004990;28;20225;-76
2023/08/12 02:25:58;;;;;;;5.50;4.60;;;;;;;;;;5032963;28;20233;-75
2023/08/12 02:28:25;;;;;;;6.03;4.10;;;;;;;;;;5012569;28;20226;-76
2023/08/12 02:30:58;;;;;;;6.10;4.53;;;;;;;;;;5021093;28;20218;-76
2023/08/12 02:33:25;;;;;;;5.53;4.50;;;;;;;;;;5015591;28;20202;-75
2023/08/12 02:35:54;;;;;;;7.60;4.25;;;;;;;;;;5024974;28;20230;-76
2023/08/12 02:38:21;;;;;;;4.90;4.38;;;;;;;;;;5026203;28;20232;-77
2023/08/12 02:40:49;;;;;;;7.30;4.70;;;;;;;;;;5032670;28;21289;-77
2023/08/12 02:43:19;;;;;;;4.63;4.20;;;;;;;;;;5038718;28;20253;-75
2023/08/12 02:45:47;;;;;;;8.13;4.18;;;;;;;;;;5039551;28;20210;-76
2023/08/12 02:48:15;;;;;;;4.97;4.47;;;;;;;;;;5034224;28;20226;-76
2023/08/12 02:50:45;;;;;;;5.05;4.63;;;;;;;;;;5033377;28;20198;-75
2023/08/12 02:53:13;;;;;;;8.73;4.53;;;;;;;;;;5035260;28;23053;-76
2023/08/12 02:55:40;;;;;;;6.18;4.53;;;;;;;;;;5032947;28;20575;-74
2023/08/12 02:58:10;;;;;;;4.90;4.40;;;;;;;;;;5032657;28;20316;-74
2023/08/12 03:00:37;;;;;;;5.25;4.53;;;;;;;;;;5042707;28;20640;-76
2023/08/12 03:03:08;;;;;;;5.70;5.13;;;;;;;;;;5010121;28;20339;-76
2023/08/12 03:05:38;;;;;;;5.10;4.30;;;;;;;;;;5029917;28;20218;-76
2023/08/12 03:08:05;;;;;;;6.70;4.60;;;;;;;;;;5011023;28;20595;-75
2023/08/12 03:10:34;;;;;;;6.10;4.00;;;;;;;;;;5035847;28;20217;-76
2023/08/12 03:13:07;;;;;;;4.68;4.22;;;;;;;;;;5035685;28;20847;-76
2023/08/12 03:15:41;;;;;;;5.68;4.47;;;;;;;;;;5033884;28;20217;-75
2023/08/12 03:18:09;;;;;;;5.18;4.65;;;;;;;;;;5032063;28;20226;-76
2023/08/12 03:20:39;;;;;;;8.40;4.50;;;;;;;;;;5029982;28;20210;-76
2023/08/12 03:23:06;;;;;;;4.72;4.15;;;;;;;;;;5036043;28;20238;-77
2023/08/12 03:25:33;;;;;;;6.63;4.25;;;;;;;;;;5036371;28;20226;-76
2023/08/12 03:28:01;;;;;;;4.60;4.20;;;;;;;;;;5035236;28;20225;-76
2023/08/12 03:30:28;;;;;;;9.27;4.65;;;;;;;;;;5037690;28;20759;-76
2023/08/12 03:32:55;;;;;;;5.00;4.60;;;;;;;;;;5031304;28;20210;-76
2023/08/12 03:35:23;;;;;;;4.90;4.43;;;;;;;;;;5033562;28;20206;-77
2023/08/12 03:37:52;;;;;;;6.25;5.10;;;;;;;;;;5037304;28;20533;-76
2023/08/12 03:40:23;;;;;;;5.47;4.25;;;;;;;;;;5021022;28;20292;-77
2023/08/12 03:42:50;;;;;;;4.45;4.05;;;;;;;;;;5022726;28;20213;-77
2023/08/12 03:45:18;;;;;;;7.93;4.70;;;;;;;;;;5037773;28;20272;-76
2023/08/12 03:47:45;;;;;;;6.53;4.38;;;;;;;;;;5018470;28;20737;-77
2023/08/12 03:50:12;;;;;;;6.18;4.00;;;;;;;;;;5036807;28;20205;-76
2023/08/12 03:52:40;;;;;;;4.60;3.92;;;;;;;;;;5036095;28;20209;-75
2023/08/12 03:55:07;;;;;;;8.85;4.50;;;;;;;;;;5031055;28;20217;-75
2023/08/12 03:57:35;;;;;;;4.97;3.95;;;;;;;;;;5032156;28;20222;-75
2023/08/12 04:00:08;;;;;;;6.30;4.30;;;;;;;;;;5034455;28;20271;-77
2023/08/12 04:02:36;;;;;;;5.40;4.28;;;;;;;;;;5011247;28;20266;-76
2023/08/12 04:05:07;;;;;;;6.15;4.32;;;;;;;;;;5016232;28;20238;-76
2023/08/12 04:07:36;;;;;;;5.97;4.85;;;;;;;;;;5032084;28;20699;-76
2023/08/12 04:10:04;;;;;;;5.50;4.25;;;;;;;;;;5021871;28;20600;-76
2023/08/12 04:12:31;;;;;;;5.18;4.63;;;;;;;;;;5020266;28;20209;-77
2023/08/12 04:15:06;;;;;;;6.32;4.63;;;;;;;;;;5033119;28;20675;-75
2023/08/12 04:17:33;;;;;;;4.43;4.03;;;;;;;;;;5031508;28;20229;-76
2023/08/12 04:20:01;;;;;;;5.78;4.53;;;;;;;;;;5037327;28;20211;-75
2023/08/12 04:22:28;;;;;;;6.18;4.43;;;;;;;;;;5039567;28;20260;-75
2023/08/12 04:24:55;;;;;;;4.80;4.30;;;;;;;;;;5041518;28;20204;-76
2023/08/12 04:27:22;;;;;;;5.00;4.50;;;;;;;;;;5031151;28;20312;-76
2023/08/12 04:29:50;;;;;;;5.82;4.38;;;;;;;;;;5014410;28;20217;-76
2023/08/12 04:32:17;;;;;;;5.15;4.75;;;;;;;;;;5035562;28;20210;-75
2023/08/12 04:34:45;;;;;;;7.50;4.78;;;;;;;;;;5034697;28;20203;-76
2023/08/12 04:37:12;;;;;;;7.55;4.88;;;;;;;;;;5034861;28;20223;-75
2023/08/12 04:39:40;;;;;;;5.35;4.80;;;;;;;;;;5034499;28;20207;-77
2023/08/12 04:42:15;;;;;;;7.50;4.85;;;;;;;;;;5034200;28;20205;-74
2023/08/12 04:44:42;;;;;;;5.68;4.70;;;;;;;;;;5038562;28;20300;-77
2023/08/12 04:47:09;;;;;;;5.15;4.75;;;;;;;;;;5035834;28;20585;-75
2023/08/12 04:49:38;;;;;;;4.97;4.57;;;;;;;;;;5035825;28;20684;-76
2023/08/12 04:52:06;;;;;;;5.90;5.20;;;;;;;;;;5039239;28;20206;-75
2023/08/12 04:54:34;;;;;;;8.48;7.68;;;;;;;;;;5028052;28;20230;-75
2023/08/12 04:57:01;;;;;;;17.58;14.82;;;;;;;;;;5029425;28;21441;-75
2023/08/12 04:59:28;;;;;;;16.80;14.52;;;;;;;;;;5036731;28;20202;-75
2023/08/12 05:01:56;;;;;;;20.33;17.58;;;;;;;;;;5034992;28;20434;-76
2023/08/12 05:04:32;;;;;;;9.95;8.95;;;;;;;;;;5030836;28;20209;-75
2023/08/12 05:07:03;;;;;;;5.65;5.15;;;;;;;;;;5035379;28;20283;-75
2023/08/12 05:09:31;;;;;;;5.10;4.60;;;;;;;;;;5033204;28;20664;-73
2023/08/12 05:12:06;;;;;;;5.82;5.22;;;;;;;;;;5035910;28;20209;-75
2023/08/12 05:14:33;;;;;;;5.22;4.72;;;;;;;;;;5039603;28;20202;-76
2023/08/12 05:17:01;;;;;;;5.10;4.60;;;;;;;;;;5040608;28;21205;-76
2023/08/12 05:19:28;;;;;;;6.10;5.38;;;;;;;;;;5033679;28;20855;-75
2023/08/12 05:21:55;;;;;;;7.88;7.15;;;;;;;;;;5038265;28;20202;-75
2023/08/12 05:24:23;;;;;;;8.15;7.35;;;;;;;;;;5033483;28;20646;-75
2023/08/12 05:26:50;;;;;;;8.85;6.70;;;;;;;;;;5033121;28;21195;-75
2023/08/12 05:29:17;;;;;;;9.63;5.93;;;;;;;;;;5040961;28;20206;-74
2023/08/12 05:31:48;;;;;;;5.85;5.30;;;;;;;;;;5036745;28;20749;-75
2023/08/12 05:34:15;;;;;;;7.90;5.68;;;;;;;;;;5033737;28;20206;-75
2023/08/12 05:36:42;;;;;;;5.82;5.13;;;;;;;;;;5033856;28;20696;-76
2023/08/12 05:39:10;;;;;;;7.85;6.50;;;;;;;;;;5038069;28;20652;-77
2023/08/12 05:41:38;;;;;;;6.40;5.45;;;;;;;;;;5035783;28;20284;-75
2023/08/12 05:44:06;;;;;;;6.68;5.50;;;;;;;;;;5036962;28;20202;-76
2023/08/12 05:46:33;;;;;;;5.85;4.45;;;;;;;;;;5030219;28;20237;-75
2023/08/12 05:49:03;;;;;;;4.32;3.80;;;;;;;;;;5034741;28;20656;-75
2023/08/12 05:51:31;;;;;;;4.85;3.70;;;;;;;;;;5032682;28;20214;-76
2023/08/12 05:53:58;;;;;;;3.50;3.20;;;;;;;;;;5031961;28;20194;-76
2023/08/12 05:56:25;;;;;;;3.95;3.10;;;;;;;;;;5034378;28;20213;-76
2023/08/12 05:58:53;;;;;;;4.63;3.35;;;;;;;;;;5033401;28;20615;-75
2023/08/12 06:01:20;;;;;;;4.82;3.40;;;;;;;;;;5034380;28;20260;-75
2023/08/12 06:03:48;;;;;;;3.88;3.40;;;;;;;;;;5033196;28;20857;-75
2023/08/12 06:06:15;;;;;;;3.83;3.53;;;;;;;;;;5039595;28;21226;-75
2023/08/12 06:08:43;;;;;;;5.40;4.50;;;;;;;;;;5021818;28;20224;-76
2023/08/12 06:11:11;;;;;;;4.78;4.38;;;;;;;;;;5038150;28;20203;-76
2023/08/12 06:13:38;;;;;;;5.45;4.38;;;;;;;;;;5039423;28;20222;-76
2023/08/12 06:16:05;;;;;;;6.20;5.57;;;;;;;;;;5032098;28;20214;-75
2023/08/12 06:18:33;;;;;;;7.43;5.47;;;;;;;;;;5037254;28;20689;-76
2023/08/12 06:21:00;;;;;;;6.80;5.95;;;;;;;;;;5038979;28;20202;-76
2023/08/12 06:23:27;;;;;;;6.05;5.45;;;;;;;;;;5023189;28;20203;-76
2023/08/12 06:25:55;;;;;;;6.55;5.45;;;;;;;;;;5037487;28;20554;-75
2023/08/12 06:28:22;;;;;;;6.00;5.40;;;;;;;;;;5038305;28;20291;-77
2023/08/12 06:30:50;;;;;;;5.32;4.72;;;;;;;;;;5036561;28;20217;-75
2023/08/12 06:33:21;;;;;;;5.22;4.72;;;;;;;;;;5021332;28;21095;-76
2023/08/12 06:35:50;;;;;;;4.47;4.07;;;;;;;;;;5043696;28;20206;-76
2023/08/12 06:38:17;;;;;;;4.00;3.53;;;;;;;;;;5043770;28;20707;-76
2023/08/12 06:40:46;;;;;;;4.53;3.78;;;;;;;;;;5043702;28;20242;-76
2023/08/12 06:43:15;;;;;;;4.18;3.83;;;;;;;;;;5044429;28;20199;-77
2023/08/12 06:45:43;;;;;;;4.07;3.78;;;;;;;;;;5041786;28;20198;-76
2023/08/12 06:48:14;;;;;;;4.75;4.10;;;;;;;;;;5041465;28;21015;-76
2023/08/12 06:50:41;;;;;;;4.22;3.80;;;;;;;;;;5042863;28;20202;-75
2023/08/12 06:53:08;;;;;;;4.45;3.72;;;;;;;;;;5015742;28;20213;-75
2023/08/12 06:55:36;;;;;;;4.72;3.63;;;;;;;;;;5041543;28;20191;-74
2023/08/12 06:58:03;;;;;;;4.00;3.70;;;;;;;;;;5017929;28;20692;-76
2023/08/12 07:00:34;;;;;;;4.35;3.97;;;;;;;;;;5043210;28;20202;-76
2023/08/12 07:03:01;;;;;;;5.28;3.97;;;;;;;;;;5044034;28;20710;-76
2023/08/12 07:05:28;;;;;;;7.10;4.20;;;;;;;;;;5021487;28;20586;-76
2023/08/12 07:07:56;;;;;;;4.55;3.55;;;;;;;;;;5019176;28;20689;-76
2023/08/12 07:10:24;;;;;;;4.10;3.70;;;;;;;;;;5033652;28;20202;-76
2023/08/12 07:12:53;;;;;;;3.80;3.45;;;;;;;;;;5035760;28;20763;-75
2023/08/12 07:15:20;;;;;;;5.07;3.50;;;;;;;;;;5041565;28;20382;-75
2023/08/12 07:17:48;;;;;;;3.72;3.20;;;;;;;;;;5038204;28;20232;-76
2023/08/12 07:20:15;;;;;;;3.47;3.17;;;;;;;;;;5040637;28;20210;-74
2023/08/12 07:22:42;;;;;;;3.58;3.28;;;;;;;;;;5018955;28;20206;-74
2023/08/12 07:25:10;;;;;;;3.22;2.95;;;;;;;;;;5036121;28;20621;-75
2023/08/12 07:27:40;;;;;;;3.05;2.85;;;;;;;;;;5012183;28;20259;-74
2023/08/12 07:30:08;;;;;;;3.88;2.72;;;;;;;;;;5041349;28;20536;-76
2023/08/12 07:32:37;;;;;;;3.33;3.03;;;;;;;;;;5043482;28;20226;-74
2023/08/12 07:35:05;;;;;;;5.28;2.92;;;;;;;;;;5042919;28;20216;-75
2023/08/12 07:37:33;;;;;;;2.80;2.60;;;;;;;;;;5042632;28;20228;-75
2023/08/12 07:40:00;;;;;;;2.60;2.40;;;;;;;;;;5023137;28;20396;-75
2023/08/12 07:42:28;;;;;;;2.30;2.20;;;;;;;;;;5027209;28;20207;-74
2023/08/12 07:44:55;;;;;;;2.92;2.45;;;;;;;;;;5038648;28;20570;-73
2023/08/12 07:47:22;;;;;;;3.85;2.58;;;;;;;;;;5023903;28;20226;-74
2023/08/12 07:49:49;;;;;;;3.13;2.40;;;;;;;;;;5040222;28;20705;-74
2023/08/12 07:52:17;;;;;;;8.45;2.80;;;;;;;;;;5039525;28;20206;-74
2023/08/12 07:54:44;;;;;;;3.28;2.60;;;;;;;;;;5038234;28;20198;-76
2023/08/12 07:57:11;;;;;;;3.55;2.25;;;;;;;;;;5042738;28;20221;-75
2023/08/12 07:59:42;;;;;;;2.42;2.22;;;;;;;;;;5041568;28;20222;-76
2023/08/12 08:02:10;;;;;;;2.47;2.28;;;;;;;;;;5037474;28;20214;-78
2023/08/12 08:04:38;;;;;;;3.45;2.30;;;;;;;;;;5035602;28;20198;-74
2023/08/12 08:07:05;;;;;;;2.28;2.08;;;;;;;;;;5034380;28;20225;-74
2023/08/12 08:09:36;;;;;;;2.35;2.15;;;;;;;;;;5036401;28;20202;-74
2023/08/12 08:12:04;;;;;;;2.63;2.42;;;;;;;;;;5034408;28;20206;-75
2023/08/12 08:14:32;;;;;;;3.33;2.47;;;;;;;;;;5040248;28;20203;-75
2023/08/12 08:16:59;;;;;;;2.40;2.20;;;;;;;;;;5042715;28;20245;-75
2023/08/12 08:19:27;;;;;;;3.50;2.42;;;;;;;;;;5042843;28;20206;-77
2023/08/12 08:21:57;;;;;;;2.55;2.13;;;;;;;;;;5038718;28;20202;-77
2023/08/12 08:24:25;;;;;;;2.35;2.15;;;;;;;;;;5034845;28;20213;-76
2023/08/12 08:26:52;;;;;;;2.72;2.08;;;;;;;;;;5035581;28;20680;-74
2023/08/12 08:29:19;;;;;;;2.85;2.20;;;;;;;;;;5047489;28;20203;-74
2023/08/12 08:31:47;;;;;;;3.30;2.13;;;;;;;;;;5046527;28;20692;-75
2023/08/12 08:34:15;;;;;;;2.50;2.30;;;;;;;;;;5043748;28;20546;-76
2023/08/12 08:36:43;;;;;;;2.25;2.15;;;;;;;;;;5020052;28;20226;-74
2023/08/12 08:39:10;;;;;;;2.72;2.53;;;;;;;;;;5041618;28;20207;-74
2023/08/12 08:41:39;;;;;;;3.95;2.30;;;;;;;;;;5047613;28;20263;-75
2023/08/12 08:44:08;;;;;;;2.30;2.10;;;;;;;;;;5041417;28;20567;-76
2023/08/12 08:46:35;;;;;;;2.90;2.30;;;;;;;;;;5049142;28;20206;-75
2023/08/12 08:49:03;;;;;;;2.20;2.10;;;;;;;;;;5047843;28;20205;-74
2023/08/12 08:51:32;;;;;;;2.47;2.28;;;;;;;;;;5048773;28;20255;-75
2023/08/12 08:53:59;;;;;;;3.28;2.40;;;;;;;;;;5044838;28;20202;-75
2023/08/12 08:56:32;;;;;;;2.88;2.40;;;;;;;;;;5043256;28;20469;-74
2023/08/12 08:59:07;;;;;;;2.80;2.47;;;;;;;;;;5044241;28;20296;-76
2023/08/12 09:01:36;;;;;;;3.00;2.78;;;;;;;;;;5045075;28;20194;-76
2023/08/12 09:04:04;;;;;;;2.70;2.50;;;;;;;;;;5043709;28;20202;-74
2023/08/12 09:06:33;;;;;;;2.90;2.65;;;;;;;;;;5042320;28;20194;-74
2023/08/12 09:09:01;;;;;;;2.65;2.30;;;;;;;;;;5044881;28;20618;-75
2023/08/12 09:11:28;;;;;;;2.50;2.30;;;;;;;;;;5049468;28;20568;-74
2023/08/12 09:13:55;;;;;;;3.00;2.45;;;;;;;;;;5047293;28;20644;-74
2023/08/12 09:16:23;;;;;;;2.75;2.53;;;;;;;;;;5047919;28;20628;-74
2023/08/12 09:18:55;;;;;;;4.32;2.58;;;;;;;;;;5048837;28;20310;-74
2023/08/12 09:21:22;;;;;;;2.95;2.50;;;;;;;;;;5041741;28;20200;-76
2023/08/12 09:23:50;;;;;;;3.78;2.53;;;;;;;;;;5039980;28;20203;-74
2023/08/12 09:26:21;;;;;;;3.30;3.00;;;;;;;;;;5048698;28;20664;-76
2023/08/12 09:28:50;;;;;;;3.25;2.63;;;;;;;;;;5022492;28;20227;-76
2023/08/12 09:31:25;;;;;;;2.85;2.65;;;;;;;;;;5045131;28;20215;-75
2023/08/12 09:33:52;;;;;;;4.63;2.80;;;;;;;;;;5042659;28;20202;-76
2023/08/12 09:36:21;;;;;;;4.75;2.60;;;;;;;;;;5033451;28;20198;-73
2023/08/12 09:38:49;;;;;;;3.53;2.58;;;;;;;;;;5036120;28;20684;-74
2023/08/12 09:41:16;;;;;;;3.63;2.92;;;;;;;;;;5044230;28;20210;-74
2023/08/12 09:43:44;;;;;;;6.03;3.00;;;;;;;;;;5026362;28;20198;-75
2023/08/12 09:46:13;;;;;;;3.25;2.60;;;;;;;;;;5044932;28;20205;-74
2023/08/12 09:48:44;;;;;;;2.53;2.33;;;;;;;;;;5044013;28;20226;-77
2023/08/12 09:51:12;;;;;;;6.13;2.75;;;;;;;;;;5043820;28;20245;-75
2023/08/12 09:53:41;;;;;;;2.90;2.70;;;;;;;;;;5044731;28;20648;-76
2023/08/12 09:56:11;;;;;;;4.80;2.92;;;;;;;;;;5037269;28;20286;-75
2023/08/12 09:58:42;;;;;;;4.05;2.55;;;;;;;;;;5030276;28;20305;-75
2023/08/12 10:01:13;;;;;;;4.25;2.83;;;;;;;;;;5045549;28;20202;-77
2023/08/12 10:03:52;;;;;;;3.53;2.72;;;;;;;;;;5048095;28;20260;-75
2023/08/12 10:06:29;;;;;;;3.67;2.55;;;;;;;;;;5039104;28;20713;-74
2023/08/12 10:08:57;;;;;;;3.92;2.45;;;;;;;;;;5049339;28;20226;-76
2023/08/12 10:11:26;;;;;;;3.10;2.28;;;;;;;;;;5045623;28;20206;-74
2023/08/12 10:13:55;;;;;;;2.47;2.28;;;;;;;;;;5047056;28;20257;-74
2023/08/12 10:16:23;;;;;;;2.95;2.65;;;;;;;;;;5043914;28;20202;-74
2023/08/12 10:18:51;;;;;;;2.70;2.50;;;;;;;;;;5047180;28;20626;-74
2023/08/12 10:21:18;;;;;;;2.47;2.28;;;;;;;;;;5047789;28;20210;-76
2023/08/12 10:23:46;;;;;;;2.25;2.15;;;;;;;;;;5039182;28;20679;-79
2023/08/12 10:26:15;;;;;;;3.03;2.33;;;;;;;;;;5035030;28;20279;-76
2023/08/12 10:28:42;;;;;;;3.75;2.75;;;;;;;;;;5025932;28;20234;-78
2023/08/12 10:31:11;;;;;;;2.92;2.67;;;;;;;;;;5029867;28;20779;-76
2023/08/12 10:33:39;;;;;;;3.72;2.50;;;;;;;;;;5029886;28;20199;-75
2023/08/12 10:36:07;;;;;;;3.08;2.80;;;;;;;;;;5035014;28;20206;-76
2023/08/12 10:38:35;;;;;;;2.67;2.47;;;;;;;;;;5035031;28;20226;-76
2023/08/12 10:41:32;;;;;;;3.20;2.60;;;;;;;;;;5042883;28;20202;-76
2023/08/12 10:44:03;;;;;;;6.60;2.92;;;;;;;;;;5030698;28;20198;-75
2023/08/12 10:46:37;;;;;;;4.85;2.40;;;;;;;;;;5042556;28;20579;-76
2023/08/12 10:49:08;;;;;;;3.80;2.30;;;;;;;;;;5043559;28;20707;-76
2023/08/12 10:51:46;;;;;;;3.08;2.50;;;;;;;;;;5046552;28;20877;-75
2023/08/12 10:54:18;;;;;;;4.05;2.50;;;;;;;;;;5043674;28;21603;-75
2023/08/12 10:57:08;;;;;;;3.30;2.42;;;;;;;;;;5033072;28;20820;-75
2023/08/12 10:59:44;;;;;;;3.65;2.72;;;;;;;;;;5004191;28;20198;-77
2023/08/12 11:02:20;;;;;;;5.05;2.97;;;;;;;;;;5031948;28;20213;-76
2023/08/12 11:05:01;;;;;;;3.45;2.60;;;;;;;;;;5025528;28;20366;-77
2023/08/12 11:07:35;;;;;;;3.00;2.28;;;;;;;;;;5025122;28;20234;-77
2023/08/12 11:10:13;;;;;;;3.28;2.33;;;;;;;;;;5019012;28;20213;-80
2023/08/12 11:12:50;;;;;;;3.00;2.70;;;;;;;;;;5026820;28;20308;-76
2023/08/12 11:15:32;;;;;;;3.33;2.47;;;;;;;;;;5008684;28;20216;-77
2023/08/12 11:18:04;;;;;;;7.22;2.70;;;;;;;;;;5028251;28;20228;-76
2023/08/12 11:20:32;;;;;;;3.60;2.53;;;;;;;;;;5035883;28;20221;-77
2023/08/12 11:23:00;;;;;;;4.97;2.90;;;;;;;;;;5009228;28;20206;-77
2023/08/12 11:25:29;;;;;;;3.00;2.80;;;;;;;;;;5016901;28;20206;-77
2023/08/12 11:27:59;;;;;;;3.63;2.78;;;;;;;;;;5012216;28;20364;-78
2023/08/12 11:30:27;;;;;;;3.70;2.85;;;;;;;;;;5014818;28;21194;-76
2023/08/12 11:32:59;;;;;;;4.20;2.65;;;;;;;;;;5017155;28;20248;-78
2023/08/12 11:35:27;;;;;;;7.72;3.00;;;;;;;;;;5019523;28;20198;-75
2023/08/12 11:37:56;;;;;;;3.83;3.13;;;;;;;;;;5012314;28;20237;-75
2023/08/12 11:40:24;;;;;;;3.15;2.85;;;;;;;;;;5035563;28;20202;-77
2023/08/12 11:42:52;;;;;;;3.97;2.60;;;;;;;;;;5036592;28;20202;-76
2023/08/12 11:45:23;;;;;;;3.65;2.97;;;;;;;;;;5040734;28;20213;-79
2023/08/12 11:47:53;;;;;;;3.65;2.88;;;;;;;;;;5041338;28;20310;-77
2023/08/12 11:50:23;;;;;;;4.75;3.17;;;;;;;;;;5039862;28;20202;-77
2023/08/12 11:52:51;;;;;;;4.32;2.85;;;;;;;;;;5031518;28;20203;-77
2023/08/12 11:55:18;;;;;;;5.97;2.90;;;;;;;;;;5035867;28;20206;-75
2023/08/12 11:57:45;;;;;;;3.38;3.08;;;;;;;;;;5033222;28;20230;-76
2023/08/12 12:00:14;;;;;;;5.57;3.20;;;;;;;;;;4996413;28;20236;-76
2023/08/12 12:02:50;;;;;;;3.03;2.83;;;;;;;;;;5006712;28;20218;-77
2023/08/12 12:05:18;;;;;;;3.58;2.90;;;;;;;;;;5014348;28;20216;-76
2023/08/12 12:07:51;;;;;;;6.70;2.72;;;;;;;;;;5016044;28;20226;-75
2023/08/12 12:10:27;;;;;;;3.25;2.92;;;;;;;;;;5016466;28;20944;-76
2023/08/12 12:13:00;;;;;;;3.13;2.72;;;;;;;;;;5014779;28;20203;-75
2023/08/12 12:15:28;;;;;;;5.78;2.67;;;;;;;;;;5028235;28;20656;-75
2023/08/12 12:17:55;;;;;;;3.55;2.97;;;;;;;;;;5017079;28;20733;-75
2023/08/12 12:20:23;;;;;;;4.25;3.05;;;;;;;;;;5026358;28;20214;-78
2023/08/12 12:22:50;;;;;;;3.55;2.63;;;;;;;;;;4994227;28;20217;-76
2023/08/12 12:25:21;;;;;;;3.00;2.60;;;;;;;;;;5016722;28;20577;-75
2023/08/12 12:27:48;;;;;;;2.95;2.50;;;;;;;;;;5022316;28;20233;-76
2023/08/12 12:30:16;;;;;;;5.72;2.80;;;;;;;;;;5026068;28;20229;-76
2023/08/12 12:32:44;;;;;;;2.58;2.38;;;;;;;;;;5022683;28;20206;-76
2023/08/12 12:35:12;;;;;;;3.00;2.50;;;;;;;;;;5015927;28;20301;-76
2023/08/12 12:37:42;;;;;;;4.55;2.70;;;;;;;;;;5020414;28;20249;-76
2023/08/12 12:40:10;;;;;;;2.72;2.53;;;;;;;;;;5021620;28;20214;-77
2023/08/12 12:42:38;;;;;;;3.35;2.83;;;;;;;;;;5035400;28;20202;-77
2023/08/12 12:45:06;;;;;;;4.13;2.92;;;;;;;;;;5032085;28;20238;-76
2023/08/12 12:47:33;;;;;;;5.68;3.08;;;;;;;;;;5029956;28;20237;-77
2023/08/12 12:50:00;;;;;;;4.38;3.20;;;;;;;;;;5023478;28;20346;-76
2023/08/12 12:52:28;;;;;;;4.43;3.05;;;;;;;;;;5019841;28;20198;-77
2023/08/12 12:54:57;;;;;;;3.40;2.78;;;;;;;;;;4998874;28;20211;-75
2023/08/12 12:57:24;;;;;;;6.40;3.10;;;;;;;;;;5019551;28;20222;-76
2023/08/12 12:59:52;;;;;;;5.25;3.00;;;;;;;;;;5036886;28;20206;-74
2023/08/12 13:02:19;;;;;;;3.40;3.10;;;;;;;;;;5024835;28;20863;-77
2023/08/12 13:04:46;;;;;;;3.67;3.20;;;;;;;;;;5008452;28;20311;-77
2023/08/12 13:07:13;;;;;;;5.00;3.45;;;;;;;;;;4994885;28;20722;-75
2023/08/12 13:09:41;;;;;;;7.65;3.17;;;;;;;;;;5018223;28;20316;-76
2023/08/12 13:12:08;;;;;;;2.67;1.75;;;;;;;;;;5019316;28;20206;-74
2023/08/12 13:14:36;;;;;;;4.72;2.35;;;;;;;;;;5004994;28;20334;-74
2023/08/12 13:17:04;;;;;;;2.97;2.10;;;;;;;;;;5025075;28;20721;-75
2023/08/12 13:19:32;;;;;;;2.10;1.35;;;;;;;;;;5018418;28;20269;-74
2023/08/12 13:22:02;;;;;;;1.88;1.30;;;;;;;;;;5021006;28;20225;-75
2023/08/12 13:24:29;;;;;;;1.55;1.20;;;;;;;;;;5020023;28;20312;-75
2023/08/12 13:26:57;;;;;;;2.45;1.40;;;;;;;;;;5001578;28;20228;-78
2023/08/12 13:29:30;;;;;;;2.17;1.30;;;;;;;;;;5016734;28;20340;-76
2023/08/12 13:31:58;;;;;;;2.30;1.38;;;;;;;;;;5020452;28;20225;-76
2023/08/12 13:34:25;;;;;;;2.30;1.70;;;;;;;;;;5020990;28;20198;-76
2023/08/12 13:36:52;;;;;;;1.40;1.27;;;;;;;;;;5027636;28;20205;-77
2023/08/12 13:39:20;;;;;;;3.70;1.50;;;;;;;;;;5017894;28;20230;-75
2023/08/12 13:41:48;;;;;;;2.58;1.67;;;;;;;;;;5036124;28;20205;-76
2023/08/12 13:44:15;;;;;;;2.13;1.65;;;;;;;;;;5036784;28;20229;-77
2023/08/12 13:46:42;;;;;;;2.92;1.63;;;;;;;;;;5039731;28;20213;-76
2023/08/12 13:49:11;;;;;;;2.70;1.80;;;;;;;;;;5011401;28;20591;-76
2023/08/12 13:51:38;;;;;;;2.25;1.45;;;;;;;;;;5013349;28;20684;-76
2023/08/12 13:54:06;;;;;;;2.90;1.73;;;;;;;;;;5021670;28;21686;-76
2023/08/12 13:56:33;;;;;;;4.50;1.63;;;;;;;;;;5018549;28;20309;-77
2023/08/12 13:59:00;;;;;;;3.58;1.60;;;;;;;;;;4997582;28;22454;-76
2023/08/12 14:01:28;;;;;;;2.20;1.80;;;;;;;;;;5036128;28;20222;-76
2023/08/12 14:03:55;;;;;;;3.83;1.50;;;;;;;;;;5017325;28;20221;-77
2023/08/12 14:06:22;;;;;;;3.92;1.50;;;;;;;;;;5018410;28;20205;-77
2023/08/12 14:08:49;;;;;;;2.88;1.67;;;;;;;;;;5024290;28;20281;-76
2023/08/12 14:11:17;;;;;;;2.33;1.42;;;;;;;;;;5020429;28;20465;-76
2023/08/12 14:13:44;;;;;;;3.80;1.73;;;;;;;;;;5017168;28;20217;-77
2023/08/12 14:16:12;;;;;;;5.55;1.80;;;;;;;;;;5013419;28;20687;-77
2023/08/12 14:18:39;;;;;;;2.45;1.95;;;;;;;;;;5026422;28;20245;-77
2023/08/12 14:21:06;;;;;;;3.78;1.88;;;;;;;;;;5018041;28;20609;-78
2023/08/12 14:23:33;;;;;;;3.58;1.73;;;;;;;;;;5025755;28;20268;-75
2023/08/12 14:26:01;;;;;;;4.28;2.00;;;;;;;;;;5003119;28;20207;-79
2023/08/12 14:28:28;;;;;;;3.40;1.98;;;;;;;;;;5038132;28;20918;-76
2023/08/12 14:30:56;;;;;;;2.60;1.85;;;;;;;;;;5018493;28;20269;-76
2023/08/12 14:33:24;;;;;;;2.92;2.22;;;;;;;;;;5018075;28;20190;-77
2023/08/12 14:35:54;;;;;;;6.07;2.40;;;;;;;;;;5042058;28;20546;-76
2023/08/12 14:38:21;;;;;;;3.30;2.40;;;;;;;;;;5033202;28;20229;-76
2023/08/12 14:40:48;;;;;;;4.05;2.47;;;;;;;;;;5034084;28;20672;-76
2023/08/12 14:43:16;;;;;;;2.47;2.28;;;;;;;;;;5024485;28;20284;-77
2023/08/12 14:45:46;;;;;;;3.70;2.40;;;;;;;;;;5003911;28;20229;-75
2023/08/12 14:48:18;;;;;;;4.00;2.30;;;;;;;;;;5001115;28;20237;-77
2023/08/12 14:50:45;;;;;;;5.45;2.33;;;;;;;;;;5014188;28;20593;-76
2023/08/12 14:53:13;;;;;;;3.95;2.58;;;;;;;;;;5021308;28;20243;-77